sensor_id;sensor_type;location;lat;lon;timestamp;P1;durP1;ratioP1;P2;durP2;ratioP2
36715;SDS011;22699;51.034;3.730;2023-04-23T00:00:25;23.92;;;19.70;;
36715;SDS011;22699;51.034;3.730;2023-04-23T00:02:52;23.23;;;18.55;;
36715;SDS011;22699;51.034;3.730;2023-04-23T00:05:19;20.35;;;17.95;;
36715;SDS011;22699;51.034;3.730;2023-04-23T00:07:48;24.45;;;20.88;;
36715;SDS011;22699;51.034;3.730;2023-04-23T00:10:14;25.35;;;19.17;;
36715;SDS011;22699;51.034;3.730;2023-04-23T00:12:40;25.65;;;20.67;;
36715;SDS011;22699;51.034;3.730;2023-04-23T00:15:07;24.48;;;19.88;;
36715;SDS011;22699;51.034;3.730;2023-04-23T00:17:33;23.45;;;19.75;;
36715;SDS011;22699;51.034;3.730;2023-04-23T00:20:00;24.65;;;20.38;;
36715;SDS011;22699;51.034;3.730;2023-04-23T00:22:25;22.27;;;19.88;;
36715;SDS011;22699;51.034;3.730;2023-04-23T00:24:51;22.30;;;19.23;;
36715;SDS011;22699;51.034;3.730;2023-04-23T00:27:17;27.77;;;21.60;;
36715;SDS011;22699;51.034;3.730;2023-04-23T00:29:45;24.83;;;21.08;;
36715;SDS011;22699;51.034;3.730;2023-04-23T00:32:11;26.83;;;21.77;;
36715;SDS011;22699;51.034;3.730;2023-04-23T00:34:38;26.33;;;22.33;;
36715;SDS011;22699;51.034;3.730;2023-04-23T00:37:04;25.88;;;22.67;;
36715;SDS011;22699;51.034;3.730;2023-04-23T00:39:31;26.85;;;21.15;;
36715;SDS011;22699;51.034;3.730;2023-04-23T00:41:57;27.00;;;20.85;;
36715;SDS011;22699;51.034;3.730;2023-04-23T00:44:25;23.98;;;20.77;;
36715;SDS011;22699;51.034;3.730;2023-04-23T00:46:51;24.42;;;20.50;;
36715;SDS011;22699;51.034;3.730;2023-04-23T00:49:18;24.70;;;21.60;;
36715;SDS011;22699;51.034;3.730;2023-04-23T00:51:46;24.95;;;20.83;;
36715;SDS011;22699;51.034;3.730;2023-04-23T00:54:18;25.88;;;21.05;;
36715;SDS011;22699;51.034;3.730;2023-04-23T00:56:43;23.58;;;21.08;;
36715;SDS011;22699;51.034;3.730;2023-04-23T00:59:09;25.92;;;21.02;;
36715;SDS011;22699;51.034;3.730;2023-04-23T01:01:35;25.42;;;20.33;;
36715;SDS011;22699;51.034;3.730;2023-04-23T01:04:01;23.85;;;20.38;;
36715;SDS011;22699;51.034;3.730;2023-04-23T01:06:27;27.80;;;21.95;;
36715;SDS011;22699;51.034;3.730;2023-04-23T01:08:52;25.38;;;20.85;;
36715;SDS011;22699;51.034;3.730;2023-04-23T01:11:18;23.33;;;20.08;;
36715;SDS011;22699;51.034;3.730;2023-04-23T01:13:44;25.58;;;21.33;;
36715;SDS011;22699;51.034;3.730;2023-04-23T01:16:10;25.40;;;20.15;;
36715;SDS011;22699;51.034;3.730;2023-04-23T01:18:36;23.83;;;20.60;;
36715;SDS011;22699;51.034;3.730;2023-04-23T01:21:05;23.42;;;19.70;;
36715;SDS011;22699;51.034;3.730;2023-04-23T01:23:31;23.70;;;19.67;;
36715;SDS011;22699;51.034;3.730;2023-04-23T01:25:58;22.90;;;19.73;;
36715;SDS011;22699;51.034;3.730;2023-04-23T01:28:25;21.85;;;18.38;;
36715;SDS011;22699;51.034;3.730;2023-04-23T01:30:51;24.40;;;20.15;;
36715;SDS011;22699;51.034;3.730;2023-04-23T01:33:16;23.35;;;19.38;;
36715;SDS011;22699;51.034;3.730;2023-04-23T01:35:44;22.35;;;19.83;;
36715;SDS011;22699;51.034;3.730;2023-04-23T01:38:11;24.00;;;19.95;;
36715;SDS011;22699;51.034;3.730;2023-04-23T01:40:38;24.52;;;20.33;;
36715;SDS011;22699;51.034;3.730;2023-04-23T01:43:04;22.92;;;18.90;;
36715;SDS011;22699;51.034;3.730;2023-04-23T01:45:32;23.23;;;20.73;;
36715;SDS011;22699;51.034;3.730;2023-04-23T01:47:58;26.05;;;21.08;;
36715;SDS011;22699;51.034;3.730;2023-04-23T01:50:26;24.98;;;20.90;;
36715;SDS011;22699;51.034;3.730;2023-04-23T01:52:55;24.75;;;20.38;;
36715;SDS011;22699;51.034;3.730;2023-04-23T01:55:21;25.42;;;20.70;;
36715;SDS011;22699;51.034;3.730;2023-04-23T01:57:47;24.67;;;21.02;;
36715;SDS011;22699;51.034;3.730;2023-04-23T02:00:14;21.75;;;19.25;;
36715;SDS011;22699;51.034;3.730;2023-04-23T02:02:41;27.63;;;21.25;;
36715;SDS011;22699;51.034;3.730;2023-04-23T02:05:12;24.92;;;21.05;;
36715;SDS011;22699;51.034;3.730;2023-04-23T02:07:41;25.38;;;19.92;;
36715;SDS011;22699;51.034;3.730;2023-04-23T02:10:10;23.02;;;20.40;;
36715;SDS011;22699;51.034;3.730;2023-04-23T02:12:38;25.90;;;19.83;;
36715;SDS011;22699;51.034;3.730;2023-04-23T02:15:05;22.58;;;19.15;;
36715;SDS011;22699;51.034;3.730;2023-04-23T02:17:32;24.30;;;19.10;;
36715;SDS011;22699;51.034;3.730;2023-04-23T02:19:58;23.27;;;19.83;;
36715;SDS011;22699;51.034;3.730;2023-04-23T02:22:25;20.30;;;17.95;;
36715;SDS011;22699;51.034;3.730;2023-04-23T02:24:54;25.95;;;18.92;;
36715;SDS011;22699;51.034;3.730;2023-04-23T02:27:21;22.40;;;19.42;;
36715;SDS011;22699;51.034;3.730;2023-04-23T02:29:47;23.85;;;19.38;;
36715;SDS011;22699;51.034;3.730;2023-04-23T02:32:13;24.00;;;18.48;;
36715;SDS011;22699;51.034;3.730;2023-04-23T02:34:43;18.83;;;16.73;;
36715;SDS011;22699;51.034;3.730;2023-04-23T02:37:08;20.85;;;18.55;;
36715;SDS011;22699;51.034;3.730;2023-04-23T02:39:34;20.75;;;17.90;;
36715;SDS011;22699;51.034;3.730;2023-04-23T02:42:03;22.05;;;18.58;;
36715;SDS011;22699;51.034;3.730;2023-04-23T02:44:29;23.35;;;17.75;;
36715;SDS011;22699;51.034;3.730;2023-04-23T02:46:55;20.00;;;17.23;;
36715;SDS011;22699;51.034;3.730;2023-04-23T02:49:20;20.40;;;16.80;;
36715;SDS011;22699;51.034;3.730;2023-04-23T02:51:46;18.75;;;16.67;;
36715;SDS011;22699;51.034;3.730;2023-04-23T02:54:12;22.67;;;16.48;;
36715;SDS011;22699;51.034;3.730;2023-04-23T02:56:38;18.80;;;16.58;;
36715;SDS011;22699;51.034;3.730;2023-04-23T02:59:05;20.25;;;16.67;;
36715;SDS011;22699;51.034;3.730;2023-04-23T03:01:32;20.85;;;17.45;;
36715;SDS011;22699;51.034;3.730;2023-04-23T03:03:58;18.30;;;15.90;;
36715;SDS011;22699;51.034;3.730;2023-04-23T03:06:24;19.83;;;16.67;;
36715;SDS011;22699;51.034;3.730;2023-04-23T03:08:50;21.42;;;16.60;;
36715;SDS011;22699;51.034;3.730;2023-04-23T03:11:16;20.20;;;16.27;;
36715;SDS011;22699;51.034;3.730;2023-04-23T03:13:42;21.33;;;17.20;;
36715;SDS011;22699;51.034;3.730;2023-04-23T03:16:07;19.38;;;16.67;;
36715;SDS011;22699;51.034;3.730;2023-04-23T03:18:33;19.90;;;15.90;;
36715;SDS011;22699;51.034;3.730;2023-04-23T03:20:59;25.35;;;15.73;;
36715;SDS011;22699;51.034;3.730;2023-04-23T03:23:25;19.27;;;15.95;;
36715;SDS011;22699;51.034;3.730;2023-04-23T03:25:51;17.77;;;15.38;;
36715;SDS011;22699;51.034;3.730;2023-04-23T03:28:17;17.52;;;14.07;;
36715;SDS011;22699;51.034;3.730;2023-04-23T03:30:45;17.17;;;14.38;;
36715;SDS011;22699;51.034;3.730;2023-04-23T03:33:13;17.00;;;13.82;;
36715;SDS011;22699;51.034;3.730;2023-04-23T03:35:42;16.60;;;14.23;;
36715;SDS011;22699;51.034;3.730;2023-04-23T03:38:07;17.05;;;13.32;;
36715;SDS011;22699;51.034;3.730;2023-04-23T03:40:33;17.35;;;13.43;;
36715;SDS011;22699;51.034;3.730;2023-04-23T03:43:00;17.75;;;12.90;;
36715;SDS011;22699;51.034;3.730;2023-04-23T03:45:26;16.95;;;12.55;;
36715;SDS011;22699;51.034;3.730;2023-04-23T03:47:53;16.40;;;12.90;;
36715;SDS011;22699;51.034;3.730;2023-04-23T03:50:21;15.73;;;11.13;;
36715;SDS011;22699;51.034;3.730;2023-04-23T03:52:46;15.93;;;12.27;;
36715;SDS011;22699;51.034;3.730;2023-04-23T03:55:15;13.15;;;10.68;;
36715;SDS011;22699;51.034;3.730;2023-04-23T03:57:41;14.20;;;11.60;;
36715;SDS011;22699;51.034;3.730;2023-04-23T04:00:06;13.30;;;11.32;;
36715;SDS011;22699;51.034;3.730;2023-04-23T04:02:33;17.42;;;11.23;;
36715;SDS011;22699;51.034;3.730;2023-04-23T04:04:58;12.85;;;10.63;;
36715;SDS011;22699;51.034;3.730;2023-04-23T04:07:25;15.25;;;10.52;;
36715;SDS011;22699;51.034;3.730;2023-04-23T04:09:51;14.05;;;10.95;;
36715;SDS011;22699;51.034;3.730;2023-04-23T04:12:16;13.90;;;9.73;;
36715;SDS011;22699;51.034;3.730;2023-04-23T04:14:42;13.30;;;8.80;;
36715;SDS011;22699;51.034;3.730;2023-04-23T04:17:09;12.88;;;9.75;;
36715;SDS011;22699;51.034;3.730;2023-04-23T04:19:36;17.52;;;10.30;;
36715;SDS011;22699;51.034;3.730;2023-04-23T04:22:02;13.98;;;10.43;;
36715;SDS011;22699;51.034;3.730;2023-04-23T04:24:28;10.93;;;8.85;;
36715;SDS011;22699;51.034;3.730;2023-04-23T04:26:58;10.98;;;8.52;;
36715;SDS011;22699;51.034;3.730;2023-04-23T04:29:26;12.15;;;8.10;;
36715;SDS011;22699;51.034;3.730;2023-04-23T04:31:53;12.20;;;8.68;;
36715;SDS011;22699;51.034;3.730;2023-04-23T04:34:19;13.07;;;7.90;;
36715;SDS011;22699;51.034;3.730;2023-04-23T04:36:45;11.60;;;8.35;;
36715;SDS011;22699;51.034;3.730;2023-04-23T04:39:12;8.95;;;7.63;;
36715;SDS011;22699;51.034;3.730;2023-04-23T04:41:39;14.02;;;8.13;;
36715;SDS011;22699;51.034;3.730;2023-04-23T04:44:05;11.27;;;7.28;;
36715;SDS011;22699;51.034;3.730;2023-04-23T04:46:38;13.30;;;7.43;;
36715;SDS011;22699;51.034;3.730;2023-04-23T04:49:10;14.55;;;7.45;;
36715;SDS011;22699;51.034;3.730;2023-04-23T04:51:37;11.68;;;7.05;;
36715;SDS011;22699;51.034;3.730;2023-04-23T04:54:03;13.02;;;6.57;;
36715;SDS011;22699;51.034;3.730;2023-04-23T04:56:29;8.85;;;6.03;;
36715;SDS011;22699;51.034;3.730;2023-04-23T04:58:55;8.00;;;5.75;;
36715;SDS011;22699;51.034;3.730;2023-04-23T05:01:21;11.73;;;6.60;;
36715;SDS011;22699;51.034;3.730;2023-04-23T05:03:48;11.00;;;6.22;;
36715;SDS011;22699;51.034;3.730;2023-04-23T05:06:14;11.30;;;5.93;;
36715;SDS011;22699;51.034;3.730;2023-04-23T05:08:40;9.90;;;5.30;;
36715;SDS011;22699;51.034;3.730;2023-04-23T05:11:13;9.80;;;6.40;;
36715;SDS011;22699;51.034;3.730;2023-04-23T05:13:39;10.18;;;5.53;;
36715;SDS011;22699;51.034;3.730;2023-04-23T05:16:05;9.77;;;5.45;;
36715;SDS011;22699;51.034;3.730;2023-04-23T05:18:31;8.05;;;5.18;;
36715;SDS011;22699;51.034;3.730;2023-04-23T05:20:57;12.20;;;5.15;;
36715;SDS011;22699;51.034;3.730;2023-04-23T05:23:22;9.25;;;5.00;;
36715;SDS011;22699;51.034;3.730;2023-04-23T05:25:48;11.88;;;4.65;;
36715;SDS011;22699;51.034;3.730;2023-04-23T05:28:17;11.18;;;5.78;;
36715;SDS011;22699;51.034;3.730;2023-04-23T05:30:43;10.88;;;4.97;;
36715;SDS011;22699;51.034;3.730;2023-04-23T05:33:08;13.48;;;5.18;;
36715;SDS011;22699;51.034;3.730;2023-04-23T05:35:36;11.23;;;4.30;;
36715;SDS011;22699;51.034;3.730;2023-04-23T05:38:02;12.77;;;4.80;;
36715;SDS011;22699;51.034;3.730;2023-04-23T05:40:29;9.73;;;4.30;;
36715;SDS011;22699;51.034;3.730;2023-04-23T05:42:56;9.23;;;4.30;;
36715;SDS011;22699;51.034;3.730;2023-04-23T05:45:23;10.20;;;4.65;;
36715;SDS011;22699;51.034;3.730;2023-04-23T05:47:48;9.25;;;4.55;;
36715;SDS011;22699;51.034;3.730;2023-04-23T05:50:14;9.25;;;3.63;;
36715;SDS011;22699;51.034;3.730;2023-04-23T05:52:40;11.48;;;4.78;;
36715;SDS011;22699;51.034;3.730;2023-04-23T05:55:06;11.40;;;3.53;;
36715;SDS011;22699;51.034;3.730;2023-04-23T05:57:33;15.63;;;3.95;;
36715;SDS011;22699;51.034;3.730;2023-04-23T06:00:06;8.20;;;3.65;;
36715;SDS011;22699;51.034;3.730;2023-04-23T06:02:36;11.82;;;4.95;;
36715;SDS011;22699;51.034;3.730;2023-04-23T06:05:04;11.02;;;3.45;;
36715;SDS011;22699;51.034;3.730;2023-04-23T06:07:31;9.43;;;3.90;;
36715;SDS011;22699;51.034;3.730;2023-04-23T06:09:58;8.95;;;3.30;;
36715;SDS011;22699;51.034;3.730;2023-04-23T06:12:24;8.82;;;3.40;;
36715;SDS011;22699;51.034;3.730;2023-04-23T06:14:51;10.23;;;3.60;;
36715;SDS011;22699;51.034;3.730;2023-04-23T06:17:20;10.32;;;3.88;;
36715;SDS011;22699;51.034;3.730;2023-04-23T06:19:46;6.85;;;3.08;;
36715;SDS011;22699;51.034;3.730;2023-04-23T06:22:12;8.00;;;3.20;;
36715;SDS011;22699;51.034;3.730;2023-04-23T06:24:40;10.52;;;3.38;;
36715;SDS011;22699;51.034;3.730;2023-04-23T06:27:05;7.90;;;2.85;;
36715;SDS011;22699;51.034;3.730;2023-04-23T06:29:32;9.80;;;3.25;;
36715;SDS011;22699;51.034;3.730;2023-04-23T06:32:00;8.65;;;3.08;;
36715;SDS011;22699;51.034;3.730;2023-04-23T06:34:26;12.45;;;3.13;;
36715;SDS011;22699;51.034;3.730;2023-04-23T06:36:53;9.40;;;3.33;;
36715;SDS011;22699;51.034;3.730;2023-04-23T06:39:30;7.20;;;2.88;;
36715;SDS011;22699;51.034;3.730;2023-04-23T06:45:19;10.27;;;2.92;;
36715;SDS011;22699;51.034;3.730;2023-04-23T06:47:47;10.73;;;4.13;;
36715;SDS011;22699;51.034;3.730;2023-04-23T06:50:14;7.63;;;3.00;;
36715;SDS011;22699;51.034;3.730;2023-04-23T06:52:39;7.47;;;2.70;;
36715;SDS011;22699;51.034;3.730;2023-04-23T06:55:06;12.30;;;2.60;;
36715;SDS011;22699;51.034;3.730;2023-04-23T06:57:44;9.40;;;2.92;;
36715;SDS011;22699;51.034;3.730;2023-04-23T07:00:10;9.02;;;2.97;;
36715;SDS011;22699;51.034;3.730;2023-04-23T07:02:45;9.55;;;2.65;;
36715;SDS011;22699;51.034;3.730;2023-04-23T07:05:11;8.23;;;2.80;;
36715;SDS011;22699;51.034;3.730;2023-04-23T07:07:38;11.63;;;2.85;;
36715;SDS011;22699;51.034;3.730;2023-04-23T07:10:13;8.13;;;2.40;;
36715;SDS011;22699;51.034;3.730;2023-04-23T07:15:09;9.10;;;3.42;;
36715;SDS011;22699;51.034;3.730;2023-04-23T07:17:57;12.07;;;3.08;;
36715;SDS011;22699;51.034;3.730;2023-04-23T07:20:36;11.98;;;2.22;;
36715;SDS011;22699;51.034;3.730;2023-04-23T07:23:04;13.45;;;3.50;;
36715;SDS011;22699;51.034;3.730;2023-04-23T07:25:31;12.10;;;3.53;;
36715;SDS011;22699;51.034;3.730;2023-04-23T07:28:15;12.25;;;2.55;;
36715;SDS011;22699;51.034;3.730;2023-04-23T07:30:40;10.40;;;2.35;;
36715;SDS011;22699;51.034;3.730;2023-04-23T07:33:06;14.20;;;2.40;;
36715;SDS011;22699;51.034;3.730;2023-04-23T07:35:32;6.63;;;1.52;;
36715;SDS011;22699;51.034;3.730;2023-04-23T07:37:59;8.82;;;2.35;;
36715;SDS011;22699;51.034;3.730;2023-04-23T07:42:54;7.97;;;2.08;;
36715;SDS011;22699;51.034;3.730;2023-04-23T07:45:28;8.43;;;2.13;;
36715;SDS011;22699;51.034;3.730;2023-04-23T07:47:55;7.10;;;2.22;;
36715;SDS011;22699;51.034;3.730;2023-04-23T07:50:23;7.53;;;1.85;;
36715;SDS011;22699;51.034;3.730;2023-04-23T07:53:00;8.88;;;2.28;;
36715;SDS011;22699;51.034;3.730;2023-04-23T07:55:30;5.60;;;1.90;;
36715;SDS011;22699;51.034;3.730;2023-04-23T07:57:57;8.88;;;2.00;;
36715;SDS011;22699;51.034;3.730;2023-04-23T08:00:24;7.72;;;2.38;;
36715;SDS011;22699;51.034;3.730;2023-04-23T08:02:52;9.02;;;2.20;;
36715;SDS011;22699;51.034;3.730;2023-04-23T08:05:18;7.47;;;2.10;;
36715;SDS011;22699;51.034;3.730;2023-04-23T08:07:44;6.60;;;2.22;;
36715;SDS011;22699;51.034;3.730;2023-04-23T08:10:09;10.13;;;1.90;;
36715;SDS011;22699;51.034;3.730;2023-04-23T08:12:35;10.05;;;1.90;;
36715;SDS011;22699;51.034;3.730;2023-04-23T08:17:36;5.70;;;1.90;;
36715;SDS011;22699;51.034;3.730;2023-04-23T08:20:04;8.25;;;2.13;;
36715;SDS011;22699;51.034;3.730;2023-04-23T08:22:34;8.70;;;2.03;;
36715;SDS011;22699;51.034;3.730;2023-04-23T08:25:01;9.85;;;2.20;;
36715;SDS011;22699;51.034;3.730;2023-04-23T08:27:29;9.90;;;2.45;;
36715;SDS011;22699;51.034;3.730;2023-04-23T08:29:55;7.97;;;2.10;;
36715;SDS011;22699;51.034;3.730;2023-04-23T08:32:22;7.03;;;2.00;;
36715;SDS011;22699;51.034;3.730;2023-04-23T08:34:48;8.10;;;2.60;;
36715;SDS011;22699;51.034;3.730;2023-04-23T08:37:13;8.02;;;2.05;;
36715;SDS011;22699;51.034;3.730;2023-04-23T08:39:42;9.73;;;2.85;;
36715;SDS011;22699;51.034;3.730;2023-04-23T08:42:42;7.03;;;1.85;;
36715;SDS011;22699;51.034;3.730;2023-04-23T08:45:10;6.72;;;1.85;;
36715;SDS011;22699;51.034;3.730;2023-04-23T08:47:40;8.60;;;2.28;;
36715;SDS011;22699;51.034;3.730;2023-04-23T08:50:14;8.88;;;2.15;;
36715;SDS011;22699;51.034;3.730;2023-04-23T08:52:46;9.35;;;2.35;;
36715;SDS011;22699;51.034;3.730;2023-04-23T08:55:16;8.57;;;2.53;;
36715;SDS011;22699;51.034;3.730;2023-04-23T08:57:46;6.90;;;1.90;;
36715;SDS011;22699;51.034;3.730;2023-04-23T09:00:27;9.95;;;2.30;;
36715;SDS011;22699;51.034;3.730;2023-04-23T09:02:54;6.78;;;2.05;;
36715;SDS011;22699;51.034;3.730;2023-04-23T09:08:34;8.63;;;1.88;;
36715;SDS011;22699;51.034;3.730;2023-04-23T09:11:01;8.68;;;2.08;;
36715;SDS011;22699;51.034;3.730;2023-04-23T09:13:32;5.20;;;1.85;;
36715;SDS011;22699;51.034;3.730;2023-04-23T09:16:06;8.43;;;1.90;;
36715;SDS011;22699;51.034;3.730;2023-04-23T09:22:13;9.38;;;2.38;;
36715;SDS011;22699;51.034;3.730;2023-04-23T09:30:23;6.35;;;1.80;;
36715;SDS011;22699;51.034;3.730;2023-04-23T09:32:52;6.22;;;1.58;;
36715;SDS011;22699;51.034;3.730;2023-04-23T09:35:22;7.40;;;1.50;;
36715;SDS011;22699;51.034;3.730;2023-04-23T09:37:59;6.50;;;1.60;;
36715;SDS011;22699;51.034;3.730;2023-04-23T09:40:36;9.50;;;2.38;;
36715;SDS011;22699;51.034;3.730;2023-04-23T09:43:18;6.43;;;1.80;;
36715;SDS011;22699;51.034;3.730;2023-04-23T09:48:48;8.73;;;1.60;;
36715;SDS011;22699;51.034;3.730;2023-04-23T09:51:16;6.72;;;1.60;;
36715;SDS011;22699;51.034;3.730;2023-04-23T09:57:05;6.60;;;1.50;;
36715;SDS011;22699;51.034;3.730;2023-04-23T09:59:33;10.07;;;1.88;;
36715;SDS011;22699;51.034;3.730;2023-04-23T10:02:04;6.63;;;1.88;;
36715;SDS011;22699;51.034;3.730;2023-04-23T10:04:49;7.55;;;1.60;;
36715;SDS011;22699;51.034;3.730;2023-04-23T10:09:55;10.57;;;2.88;;
36715;SDS011;22699;51.034;3.730;2023-04-23T10:12:37;9.02;;;1.85;;
36715;SDS011;22699;51.034;3.730;2023-04-23T10:18:02;9.30;;;2.33;;
36715;SDS011;22699;51.034;3.730;2023-04-23T10:26:25;13.32;;;2.58;;
36715;SDS011;22699;51.034;3.730;2023-04-23T10:32:16;11.07;;;2.63;;
36715;SDS011;22699;51.034;3.730;2023-04-23T10:34:49;6.45;;;2.10;;
36715;SDS011;22699;51.034;3.730;2023-04-23T10:37:27;10.52;;;2.13;;
36715;SDS011;22699;51.034;3.730;2023-04-23T10:40:00;6.32;;;2.15;;
36715;SDS011;22699;51.034;3.730;2023-04-23T10:42:44;13.05;;;3.65;;
36715;SDS011;22699;51.034;3.730;2023-04-23T10:45:13;9.02;;;2.13;;
36715;SDS011;22699;51.034;3.730;2023-04-23T10:47:44;9.75;;;2.10;;
36715;SDS011;22699;51.034;3.730;2023-04-23T10:53:21;7.88;;;2.25;;
36715;SDS011;22699;51.034;3.730;2023-04-23T10:56:03;3.67;;;1.42;;
36715;SDS011;22699;51.034;3.730;2023-04-23T10:58:50;12.10;;;2.05;;
36715;SDS011;22699;51.034;3.730;2023-04-23T11:01:19;5.55;;;1.40;;
36715;SDS011;22699;51.034;3.730;2023-04-23T11:03:50;6.38;;;1.58;;
36715;SDS011;22699;51.034;3.730;2023-04-23T11:06:48;7.93;;;2.10;;
36715;SDS011;22699;51.034;3.730;2023-04-23T11:11:56;4.70;;;1.35;;
36715;SDS011;22699;51.034;3.730;2023-04-23T11:14:36;5.40;;;1.42;;
36715;SDS011;22699;51.034;3.730;2023-04-23T11:17:21;4.55;;;1.30;;
36715;SDS011;22699;51.034;3.730;2023-04-23T11:20:19;4.72;;;1.13;;
36715;SDS011;22699;51.034;3.730;2023-04-23T11:22:51;6.32;;;1.00;;
36715;SDS011;22699;51.034;3.730;2023-04-23T11:26:14;5.80;;;1.73;;
36715;SDS011;22699;51.034;3.730;2023-04-23T11:31:08;4.85;;;1.20;;
36715;SDS011;22699;51.034;3.730;2023-04-23T11:33:36;7.15;;;1.20;;
36715;SDS011;22699;51.034;3.730;2023-04-23T11:36:08;3.72;;;0.85;;
36715;SDS011;22699;51.034;3.730;2023-04-23T11:38:35;5.57;;;0.98;;
36715;SDS011;22699;51.034;3.730;2023-04-23T11:41:03;4.60;;;1.90;;
36715;SDS011;22699;51.034;3.730;2023-04-23T11:43:33;3.90;;;1.20;;
36715;SDS011;22699;51.034;3.730;2023-04-23T11:46:00;4.07;;;1.65;;
36715;SDS011;22699;51.034;3.730;2023-04-23T11:48:27;7.22;;;1.83;;
36715;SDS011;22699;51.034;3.730;2023-04-23T11:50:52;5.60;;;1.00;;
36715;SDS011;22699;51.034;3.730;2023-04-23T11:53:20;2.80;;;0.93;;
36715;SDS011;22699;51.034;3.730;2023-04-23T11:56:02;3.05;;;0.88;;
36715;SDS011;22699;51.034;3.730;2023-04-23T11:58:42;5.20;;;1.35;;
36715;SDS011;22699;51.034;3.730;2023-04-23T12:01:09;4.60;;;1.73;;
36715;SDS011;22699;51.034;3.730;2023-04-23T12:03:38;4.47;;;1.60;;
36715;SDS011;22699;51.034;3.730;2023-04-23T12:06:05;2.88;;;1.38;;
36715;SDS011;22699;51.034;3.730;2023-04-23T12:08:32;4.20;;;1.52;;
36715;SDS011;22699;51.034;3.730;2023-04-23T12:11:04;7.18;;;1.55;;
36715;SDS011;22699;51.034;3.730;2023-04-23T12:13:38;3.72;;;1.77;;
36715;SDS011;22699;51.034;3.730;2023-04-23T12:16:06;4.97;;;1.88;;
36715;SDS011;22699;51.034;3.730;2023-04-23T12:18:34;5.88;;;1.45;;
36715;SDS011;22699;51.034;3.730;2023-04-23T12:21:10;6.13;;;1.38;;
36715;SDS011;22699;51.034;3.730;2023-04-23T12:23:37;3.60;;;1.00;;
36715;SDS011;22699;51.034;3.730;2023-04-23T12:26:19;4.28;;;1.10;;
36715;SDS011;22699;51.034;3.730;2023-04-23T12:28:48;5.05;;;1.42;;
36715;SDS011;22699;51.034;3.730;2023-04-23T12:31:21;8.63;;;1.85;;
36715;SDS011;22699;51.034;3.730;2023-04-23T12:34:04;5.53;;;1.50;;
36715;SDS011;22699;51.034;3.730;2023-04-23T12:36:31;6.13;;;1.60;;
36715;SDS011;22699;51.034;3.730;2023-04-23T12:41:54;5.45;;;1.10;;
36715;SDS011;22699;51.034;3.730;2023-04-23T12:44:25;4.47;;;1.35;;
36715;SDS011;22699;51.034;3.730;2023-04-23T12:47:03;3.15;;;1.08;;
36715;SDS011;22699;51.034;3.730;2023-04-23T12:49:34;3.13;;;1.35;;
36715;SDS011;22699;51.034;3.730;2023-04-23T12:52:01;4.60;;;1.30;;
36715;SDS011;22699;51.034;3.730;2023-04-23T12:54:32;4.00;;;1.63;;
36715;SDS011;22699;51.034;3.730;2023-04-23T12:59:41;6.30;;;1.20;;
36715;SDS011;22699;51.034;3.730;2023-04-23T13:07:13;7.90;;;1.40;;
36715;SDS011;22699;51.034;3.730;2023-04-23T13:09:39;4.20;;;0.90;;
36715;SDS011;22699;51.034;3.730;2023-04-23T13:12:05;3.30;;;0.90;;
36715;SDS011;22699;51.034;3.730;2023-04-23T13:14:30;5.18;;;0.98;;
36715;SDS011;22699;51.034;3.730;2023-04-23T13:16:56;2.08;;;0.82;;
36715;SDS011;22699;51.034;3.730;2023-04-23T13:19:25;3.70;;;1.23;;
36715;SDS011;22699;51.034;3.730;2023-04-23T13:21:54;1.77;;;0.77;;
36715;SDS011;22699;51.034;3.730;2023-04-23T13:24:23;1.48;;;0.80;;
36715;SDS011;22699;51.034;3.730;2023-04-23T13:26:49;3.25;;;0.90;;
36715;SDS011;22699;51.034;3.730;2023-04-23T13:29:15;2.47;;;0.80;;
36715;SDS011;22699;51.034;3.730;2023-04-23T13:31:41;2.63;;;0.80;;
36715;SDS011;22699;51.034;3.730;2023-04-23T13:34:08;2.25;;;1.15;;
36715;SDS011;22699;51.034;3.730;2023-04-23T13:36:34;2.15;;;0.90;;
36715;SDS011;22699;51.034;3.730;2023-04-23T13:39:02;2.20;;;0.90;;
36715;SDS011;22699;51.034;3.730;2023-04-23T13:41:29;4.65;;;0.90;;
36715;SDS011;22699;51.034;3.730;2023-04-23T13:43:57;2.00;;;1.10;;
36715;SDS011;22699;51.034;3.730;2023-04-23T13:46:25;1.80;;;0.88;;
36715;SDS011;22699;51.034;3.730;2023-04-23T13:48:56;3.45;;;0.82;;
36715;SDS011;22699;51.034;3.730;2023-04-23T13:51:25;2.88;;;1.45;;
36715;SDS011;22699;51.034;3.730;2023-04-23T13:53:51;2.63;;;1.30;;
36715;SDS011;22699;51.034;3.730;2023-04-23T13:56:17;3.75;;;1.48;;
36715;SDS011;22699;51.034;3.730;2023-04-23T13:58:52;4.32;;;1.08;;
36715;SDS011;22699;51.034;3.730;2023-04-23T14:01:20;4.65;;;1.27;;
36715;SDS011;22699;51.034;3.730;2023-04-23T14:03:45;4.78;;;0.80;;
36715;SDS011;22699;51.034;3.730;2023-04-23T14:06:12;2.10;;;1.25;;
36715;SDS011;22699;51.034;3.730;2023-04-23T14:08:37;2.47;;;1.00;;
36715;SDS011;22699;51.034;3.730;2023-04-23T14:11:05;2.95;;;1.40;;
36715;SDS011;22699;51.034;3.730;2023-04-23T14:13:31;3.75;;;1.48;;
36715;SDS011;22699;51.034;3.730;2023-04-23T14:15:57;4.57;;;1.02;;
36715;SDS011;22699;51.034;3.730;2023-04-23T14:18:23;2.22;;;0.90;;
36715;SDS011;22699;51.034;3.730;2023-04-23T14:20:49;1.58;;;1.20;;
36715;SDS011;22699;51.034;3.730;2023-04-23T14:26:19;2.58;;;0.85;;
36715;SDS011;22699;51.034;3.730;2023-04-23T14:28:45;3.75;;;0.80;;
36715;SDS011;22699;51.034;3.730;2023-04-23T14:31:15;3.67;;;1.60;;
36715;SDS011;22699;51.034;3.730;2023-04-23T14:33:41;1.60;;;1.20;;
36715;SDS011;22699;51.034;3.730;2023-04-23T14:36:06;4.18;;;1.33;;
36715;SDS011;22699;51.034;3.730;2023-04-23T14:38:32;2.53;;;1.27;;
36715;SDS011;22699;51.034;3.730;2023-04-23T14:40:59;1.50;;;1.00;;
36715;SDS011;22699;51.034;3.730;2023-04-23T14:43:30;2.10;;;1.25;;
36715;SDS011;22699;51.034;3.730;2023-04-23T14:45:55;2.70;;;1.27;;
36715;SDS011;22699;51.034;3.730;2023-04-23T14:48:21;4.88;;;1.13;;
36715;SDS011;22699;51.034;3.730;2023-04-23T14:50:47;1.80;;;1.13;;
36715;SDS011;22699;51.034;3.730;2023-04-23T14:53:13;3.42;;;1.10;;
36715;SDS011;22699;51.034;3.730;2023-04-23T14:55:38;2.00;;;1.10;;
36715;SDS011;22699;51.034;3.730;2023-04-23T14:58:06;2.83;;;1.30;;
36715;SDS011;22699;51.034;3.730;2023-04-23T15:00:33;2.17;;;1.10;;
36715;SDS011;22699;51.034;3.730;2023-04-23T15:02:59;2.13;;;1.35;;
36715;SDS011;22699;51.034;3.730;2023-04-23T15:05:26;3.10;;;1.30;;
36715;SDS011;22699;51.034;3.730;2023-04-23T15:07:52;3.38;;;1.30;;
36715;SDS011;22699;51.034;3.730;2023-04-23T15:10:17;2.70;;;1.30;;
36715;SDS011;22699;51.034;3.730;2023-04-23T15:18:01;4.32;;;1.70;;
36715;SDS011;22699;51.034;3.730;2023-04-23T15:20:27;3.53;;;1.20;;
36715;SDS011;22699;51.034;3.730;2023-04-23T15:22:54;6.38;;;1.40;;
36715;SDS011;22699;51.034;3.730;2023-04-23T15:25:20;2.30;;;1.13;;
36715;SDS011;22699;51.034;3.730;2023-04-23T15:27:47;3.92;;;1.50;;
36715;SDS011;22699;51.034;3.730;2023-04-23T15:30:22;2.40;;;1.30;;
36715;SDS011;22699;51.034;3.730;2023-04-23T15:32:50;2.42;;;1.42;;
36715;SDS011;22699;51.034;3.730;2023-04-23T15:35:19;3.53;;;1.75;;
36715;SDS011;22699;51.034;3.730;2023-04-23T15:37:46;2.83;;;1.52;;
36715;SDS011;22699;51.034;3.730;2023-04-23T15:40:11;3.40;;;1.45;;
36715;SDS011;22699;51.034;3.730;2023-04-23T15:42:37;4.80;;;1.85;;
36715;SDS011;22699;51.034;3.730;2023-04-23T15:45:05;2.97;;;2.20;;
36715;SDS011;22699;51.034;3.730;2023-04-23T15:47:33;2.97;;;1.70;;
36715;SDS011;22699;51.034;3.730;2023-04-23T15:49:59;3.42;;;1.70;;
36715;SDS011;22699;51.034;3.730;2023-04-23T15:52:25;4.07;;;1.92;;
36715;SDS011;22699;51.034;3.730;2023-04-23T15:54:51;3.65;;;2.00;;
36715;SDS011;22699;51.034;3.730;2023-04-23T15:57:17;3.88;;;2.00;;